sensor_id;sensor_type;location;lat;lon;timestamp;temperature;humidity
11820;DHT22;5967;48.944;9.240;2022-09-09T00:02:19;14.60;99.90
11820;DHT22;5967;48.944;9.240;2022-09-09T00:04:59;14.60;99.90
11820;DHT22;5967;48.944;9.240;2022-09-09T00:13:02;14.70;99.90
11820;DHT22;5967;48.944;9.240;2022-09-09T00:15:38;14.80;99.90
11820;DHT22;5967;48.944;9.240;2022-09-09T00:20:58;14.80;99.90
11820;DHT22;5967;48.944;9.240;2022-09-09T00:23:38;14.80;99.90
11820;DHT22;5967;48.944;9.240;2022-09-09T00:26:43;14.80;99.90
11820;DHT22;5967;48.944;9.240;2022-09-09T00:29:40;14.70;99.90
11820;DHT22;5967;48.944;9.240;2022-09-09T00:32:17;14.70;99.90
11820;DHT22;5967;48.944;9.240;2022-09-09T00:35:03;14.70;99.90
11820;DHT22;5967;48.944;9.240;2022-09-09T00:37:31;14.60;99.90
11820;DHT22;5967;48.944;9.240;2022-09-09T00:40:00;14.70;99.90
11820;DHT22;5967;48.944;9.240;2022-09-09T00:42:40;14.70;99.90
11820;DHT22;5967;48.944;9.240;2022-09-09T00:48:03;14.60;99.90
11820;DHT22;5967;48.944;9.240;2022-09-09T00:55:56;14.60;99.90
11820;DHT22;5967;48.944;9.240;2022-09-09T00:58:26;14.60;99.90
11820;DHT22;5967;48.944;9.240;2022-09-09T01:03:39;14.70;99.90
11820;DHT22;5967;48.944;9.240;2022-09-09T01:16:54;14.80;99.90
11820;DHT22;5967;48.944;9.240;2022-09-09T01:19:50;14.80;99.90
11820;DHT22;5967;48.944;9.240;2022-09-09T01:25:19;14.90;99.90
11820;DHT22;5967;48.944;9.240;2022-09-09T01:27:47;14.90;99.90
11820;DHT22;5967;48.944;9.240;2022-09-09T01:30:16;14.90;99.90
11820;DHT22;5967;48.944;9.240;2022-09-09T01:32:48;14.90;99.90
11820;DHT22;5967;48.944;9.240;2022-09-09T01:35:29;14.90;99.90
11820;DHT22;5967;48.944;9.240;2022-09-09T01:37:57;14.80;99.90
11820;DHT22;5967;48.944;9.240;2022-09-09T01:40:24;14.90;99.90
11820;DHT22;5967;48.944;9.240;2022-09-09T01:42:50;14.90;99.90
11820;DHT22;5967;48.944;9.240;2022-09-09T01:45:16;14.90;99.90
11820;DHT22;5967;48.944;9.240;2022-09-09T01:47:42;14.90;99.90
11820;DHT22;5967;48.944;9.240;2022-09-09T01:50:10;15.00;99.90
11820;DHT22;5967;48.944;9.240;2022-09-09T01:52:37;15.00;99.90
11820;DHT22;5967;48.944;9.240;2022-09-09T01:55:04;15.00;99.90
11820;DHT22;5967;48.944;9.240;2022-09-09T01:57:35;15.10;99.90
11820;DHT22;5967;48.944;9.240;2022-09-09T02:00:07;15.10;99.90
11820;DHT22;5967;48.944;9.240;2022-09-09T02:02:44;15.00;99.90
11820;DHT22;5967;48.944;9.240;2022-09-09T02:08:00;15.10;99.90
11820;DHT22;5967;48.944;9.240;2022-09-09T02:10:34;15.00;99.90
11820;DHT22;5967;48.944;9.240;2022-09-09T02:13:10;15.10;99.90
11820;DHT22;5967;48.944;9.240;2022-09-09T02:15:45;15.10;99.90
11820;DHT22;5967;48.944;9.240;2022-09-09T02:18:14;15.10;99.90
11820;DHT22;5967;48.944;9.240;2022-09-09T02:20:43;15.10;99.90
11820;DHT22;5967;48.944;9.240;2022-09-09T02:23:11;15.10;99.90
11820;DHT22;5967;48.944;9.240;2022-09-09T02:25:39;15.10;99.90
11820;DHT22;5967;48.944;9.240;2022-09-09T02:28:08;15.10;99.90
11820;DHT22;5967;48.944;9.240;2022-09-09T02:30:37;15.10;99.90
11820;DHT22;5967;48.944;9.240;2022-09-09T02:33:04;15.20;99.90
11820;DHT22;5967;48.944;9.240;2022-09-09T02:35:38;15.10;99.90
11820;DHT22;5967;48.944;9.240;2022-09-09T02:38:09;15.10;99.90
11820;DHT22;5967;48.944;9.240;2022-09-09T02:40:38;15.00;99.90
11820;DHT22;5967;48.944;9.240;2022-09-09T02:43:04;15.00;99.90
11820;DHT22;5967;48.944;9.240;2022-09-09T02:45:42;14.90;99.90
11820;DHT22;5967;48.944;9.240;2022-09-09T02:48:48;14.90;99.90
11820;DHT22;5967;48.944;9.240;2022-09-09T02:54:09;14.80;99.90
11820;DHT22;5967;48.944;9.240;2022-09-09T02:56:40;14.80;99.90
11820;DHT22;5967;48.944;9.240;2022-09-09T02:59:09;14.80;99.90
11820;DHT22;5967;48.944;9.240;2022-09-09T03:01:35;14.70;99.90
11820;DHT22;5967;48.944;9.240;2022-09-09T03:04:02;14.70;99.90
11820;DHT22;5967;48.944;9.240;2022-09-09T03:06:27;14.70;99.90
11820;DHT22;5967;48.944;9.240;2022-09-09T03:08:53;14.60;99.90
11820;DHT22;5967;48.944;9.240;2022-09-09T03:11:19;14.60;99.90
11820;DHT22;5967;48.944;9.240;2022-09-09T03:13:44;14.60;99.90
11820;DHT22;5967;48.944;9.240;2022-09-09T03:16:10;14.60;99.90
11820;DHT22;5967;48.944;9.240;2022-09-09T03:18:35;14.60;99.90
11820;DHT22;5967;48.944;9.240;2022-09-09T03:21:01;14.60;99.90
11820;DHT22;5967;48.944;9.240;2022-09-09T03:23:27;14.60;99.90
11820;DHT22;5967;48.944;9.240;2022-09-09T03:25:53;14.60;99.90
11820;DHT22;5967;48.944;9.240;2022-09-09T03:28:22;14.60;99.90
11820;DHT22;5967;48.944;9.240;2022-09-09T03:30:48;14.60;99.90
11820;DHT22;5967;48.944;9.240;2022-09-09T03:33:14;14.60;99.90
11820;DHT22;5967;48.944;9.240;2022-09-09T03:35:48;14.60;99.90
11820;DHT22;5967;48.944;9.240;2022-09-09T03:38:14;14.60;99.90
11820;DHT22;5967;48.944;9.240;2022-09-09T03:40:39;14.60;99.90
11820;DHT22;5967;48.944;9.240;2022-09-09T03:43:05;14.60;99.90
11820;DHT22;5967;48.944;9.240;2022-09-09T03:45:30;14.60;99.90
11820;DHT22;5967;48.944;9.240;2022-09-09T03:47:56;14.60;99.90
11820;DHT22;5967;48.944;9.240;2022-09-09T03:50:22;14.50;99.90
11820;DHT22;5967;48.944;9.240;2022-09-09T03:52:48;14.50;99.90
11820;DHT22;5967;48.944;9.240;2022-09-09T03:55:14;14.50;99.90
11820;DHT22;5967;48.944;9.240;2022-09-09T03:57:39;14.50;99.90
11820;DHT22;5967;48.944;9.240;2022-09-09T04:00:07;14.50;99.90
11820;DHT22;5967;48.944;9.240;2022-09-09T04:02:33;14.60;99.90
11820;DHT22;5967;48.944;9.240;2022-09-09T04:04:58;14.60;99.90
11820;DHT22;5967;48.944;9.240;2022-09-09T04:07:25;14.60;99.90
11820;DHT22;5967;48.944;9.240;2022-09-09T04:09:52;14.60;99.90
11820;DHT22;5967;48.944;9.240;2022-09-09T04:12:18;14.60;99.90
11820;DHT22;5967;48.944;9.240;2022-09-09T04:14:44;14.60;99.90
11820;DHT22;5967;48.944;9.240;2022-09-09T04:17:09;14.60;99.90
11820;DHT22;5967;48.944;9.240;2022-09-09T04:19:35;14.60;99.90
11820;DHT22;5967;48.944;9.240;2022-09-09T04:22:00;14.50;99.90
11820;DHT22;5967;48.944;9.240;2022-09-09T04:24:26;14.50;99.90
11820;DHT22;5967;48.944;9.240;2022-09-09T04:26:54;14.50;99.90
11820;DHT22;5967;48.944;9.240;2022-09-09T04:29:20;14.50;99.90
11820;DHT22;5967;48.944;9.240;2022-09-09T04:31:46;14.50;99.90
11820;DHT22;5967;48.944;9.240;2022-09-09T04:34:11;14.50;99.90
11820;DHT22;5967;48.944;9.240;2022-09-09T04:36:37;14.50;99.90
11820;DHT22;5967;48.944;9.240;2022-09-09T04:39:04;14.50;99.90
11820;DHT22;5967;48.944;9.240;2022-09-09T04:41:32;14.50;99.90
11820;DHT22;5967;48.944;9.240;2022-09-09T04:43:58;14.50;99.90
11820;DHT22;5967;48.944;9.240;2022-09-09T04:46:26;14.50;99.90
11820;DHT22;5967;48.944;9.240;2022-09-09T04:48:52;14.60;99.90
11820;DHT22;5967;48.944;9.240;2022-09-09T04:51:18;14.60;99.90
11820;DHT22;5967;48.944;9.240;2022-09-09T04:53:44;14.70;99.90
11820;DHT22;5967;48.944;9.240;2022-09-09T04:56:14;14.70;99.90
11820;DHT22;5967;48.944;9.240;2022-09-09T04:58:40;14.80;99.90
11820;DHT22;5967;48.944;9.240;2022-09-09T05:01:14;14.80;99.90
11820;DHT22;5967;48.944;9.240;2022-09-09T05:03:40;14.80;99.90
11820;DHT22;5967;48.944;9.240;2022-09-09T05:06:15;14.90;99.90
11820;DHT22;5967;48.944;9.240;2022-09-09T05:08:44;14.90;99.90
11820;DHT22;5967;48.944;9.240;2022-09-09T05:11:25;14.90;99.90
11820;DHT22;5967;48.944;9.240;2022-09-09T05:13:52;14.80;99.90
11820;DHT22;5967;48.944;9.240;2022-09-09T05:16:18;14.80;99.90
11820;DHT22;5967;48.944;9.240;2022-09-09T05:18:44;14.80;99.90
11820;DHT22;5967;48.944;9.240;2022-09-09T05:21:10;14.90;99.90
11820;DHT22;5967;48.944;9.240;2022-09-09T05:23:36;14.90;99.90
11820;DHT22;5967;48.944;9.240;2022-09-09T05:26:03;15.00;99.90
11820;DHT22;5967;48.944;9.240;2022-09-09T05:28:29;15.00;99.90
11820;DHT22;5967;48.944;9.240;2022-09-09T05:31:00;15.00;99.90
11820;DHT22;5967;48.944;9.240;2022-09-09T05:33:26;15.10;99.90
11820;DHT22;5967;48.944;9.240;2022-09-09T05:36:01;15.10;99.90
11820;DHT22;5967;48.944;9.240;2022-09-09T05:38:28;15.20;99.90
11820;DHT22;5967;48.944;9.240;2022-09-09T05:40:54;15.10;99.90
11820;DHT22;5967;48.944;9.240;2022-09-09T05:43:22;15.10;99.90
11820;DHT22;5967;48.944;9.240;2022-09-09T05:45:48;15.20;99.90
11820;DHT22;5967;48.944;9.240;2022-09-09T05:48:15;15.30;99.90
11820;DHT22;5967;48.944;9.240;2022-09-09T05:50:41;15.40;99.90
11820;DHT22;5967;48.944;9.240;2022-09-09T05:53:08;15.50;99.90
11820;DHT22;5967;48.944;9.240;2022-09-09T05:55:34;15.60;99.90
11820;DHT22;5967;48.944;9.240;2022-09-09T05:58:00;15.60;99.90
11820;DHT22;5967;48.944;9.240;2022-09-09T06:00:26;15.70;99.90
11820;DHT22;5967;48.944;9.240;2022-09-09T06:02:52;15.70;99.90
11820;DHT22;5967;48.944;9.240;2022-09-09T06:05:19;15.80;99.90
11820;DHT22;5967;48.944;9.240;2022-09-09T06:07:45;15.80;99.90
11820;DHT22;5967;48.944;9.240;2022-09-09T06:10:14;15.90;99.90
11820;DHT22;5967;48.944;9.240;2022-09-09T06:12:42;15.90;99.90
11820;DHT22;5967;48.944;9.240;2022-09-09T06:15:10;16.00;99.90
11820;DHT22;5967;48.944;9.240;2022-09-09T06:17:36;16.10;99.90
11820;DHT22;5967;48.944;9.240;2022-09-09T06:20:05;16.10;99.90
11820;DHT22;5967;48.944;9.240;2022-09-09T06:22:31;16.20;99.90
11820;DHT22;5967;48.944;9.240;2022-09-09T06:24:56;16.20;99.90
11820;DHT22;5967;48.944;9.240;2022-09-09T06:27:22;16.20;99.90
11820;DHT22;5967;48.944;9.240;2022-09-09T06:29:47;16.20;99.90
11820;DHT22;5967;48.944;9.240;2022-09-09T06:32:13;16.20;99.90
11820;DHT22;5967;48.944;9.240;2022-09-09T06:34:45;16.20;99.90
11820;DHT22;5967;48.944;9.240;2022-09-09T06:37:10;16.20;99.90
11820;DHT22;5967;48.944;9.240;2022-09-09T06:39:36;16.20;99.90
11820;DHT22;5967;48.944;9.240;2022-09-09T06:42:02;16.30;99.90
11820;DHT22;5967;48.944;9.240;2022-09-09T06:44:27;16.40;99.90
11820;DHT22;5967;48.944;9.240;2022-09-09T06:46:53;16.50;99.90
11820;DHT22;5967;48.944;9.240;2022-09-09T06:49:19;16.60;99.90
11820;DHT22;5967;48.944;9.240;2022-09-09T06:51:44;16.70;99.90
11820;DHT22;5967;48.944;9.240;2022-09-09T06:54:11;16.80;99.90
11820;DHT22;5967;48.944;9.240;2022-09-09T06:56:41;16.80;99.90
11820;DHT22;5967;48.944;9.240;2022-09-09T06:59:09;16.90;99.90
11820;DHT22;5967;48.944;9.240;2022-09-09T07:01:40;17.00;99.90
11820;DHT22;5967;48.944;9.240;2022-09-09T07:04:17;17.00;99.90
11820;DHT22;5967;48.944;9.240;2022-09-09T07:06:49;17.00;99.90
11820;DHT22;5967;48.944;9.240;2022-09-09T07:09:18;17.10;99.90
11820;DHT22;5967;48.944;9.240;2022-09-09T07:11:49;17.20;99.90
11820;DHT22;5967;48.944;9.240;2022-09-09T07:17:11;17.40;99.90
11820;DHT22;5967;48.944;9.240;2022-09-09T07:19:40;17.50;99.90
11820;DHT22;5967;48.944;9.240;2022-09-09T07:22:05;17.60;99.90
11820;DHT22;5967;48.944;9.240;2022-09-09T07:24:31;17.60;99.90
11820;DHT22;5967;48.944;9.240;2022-09-09T07:27:00;17.70;99.90
11820;DHT22;5967;48.944;9.240;2022-09-09T07:29:28;17.80;99.90
11820;DHT22;5967;48.944;9.240;2022-09-09T07:31:53;17.80;99.90
11820;DHT22;5967;48.944;9.240;2022-09-09T07:34:21;17.90;99.90
11820;DHT22;5967;48.944;9.240;2022-09-09T07:36:50;17.90;99.90
11820;DHT22;5967;48.944;9.240;2022-09-09T07:39:21;18.00;99.90
11820;DHT22;5967;48.944;9.240;2022-09-09T07:41:47;18.00;99.90
11820;DHT22;5967;48.944;9.240;2022-09-09T07:44:24;18.10;99.90
11820;DHT22;5967;48.944;9.240;2022-09-09T07:46:53;18.10;99.90
11820;DHT22;5967;48.944;9.240;2022-09-09T07:49:22;18.20;99.90
11820;DHT22;5967;48.944;9.240;2022-09-09T07:51:50;18.20;99.90
11820;DHT22;5967;48.944;9.240;2022-09-09T07:54:21;18.20;99.90
11820;DHT22;5967;48.944;9.240;2022-09-09T07:56:49;18.20;99.90
11820;DHT22;5967;48.944;9.240;2022-09-09T07:59:18;18.20;99.90
11820;DHT22;5967;48.944;9.240;2022-09-09T08:01:49;18.20;99.90
11820;DHT22;5967;48.944;9.240;2022-09-09T08:04:19;18.30;99.90
11820;DHT22;5967;48.944;9.240;2022-09-09T08:06:55;18.20;99.90
11820;DHT22;5967;48.944;9.240;2022-09-09T08:09:21;18.20;99.90
11820;DHT22;5967;48.944;9.240;2022-09-09T08:11:52;18.30;99.90
11820;DHT22;5967;48.944;9.240;2022-09-09T08:14:24;18.40;99.90
11820;DHT22;5967;48.944;9.240;2022-09-09T08:16:55;18.60;99.90
11820;DHT22;5967;48.944;9.240;2022-09-09T08:19:25;18.80;99.90
11820;DHT22;5967;48.944;9.240;2022-09-09T08:21:51;18.90;99.90
11820;DHT22;5967;48.944;9.240;2022-09-09T08:24:17;19.10;99.90
11820;DHT22;5967;48.944;9.240;2022-09-09T08:26:46;19.20;99.90
11820;DHT22;5967;48.944;9.240;2022-09-09T08:29:16;19.30;99.90
11820;DHT22;5967;48.944;9.240;2022-09-09T08:31:49;19.40;99.90
11820;DHT22;5967;48.944;9.240;2022-09-09T08:34:16;19.50;99.90
11820;DHT22;5967;48.944;9.240;2022-09-09T08:36:53;19.60;99.90
11820;DHT22;5967;48.944;9.240;2022-09-09T08:39:20;19.70;99.90
11820;DHT22;5967;48.944;9.240;2022-09-09T08:48:05;20.20;99.90
11820;DHT22;5967;48.944;9.240;2022-09-09T08:50:38;20.40;99.90
11820;DHT22;5967;48.944;9.240;2022-09-09T08:55:50;20.60;99.90
11820;DHT22;5967;48.944;9.240;2022-09-09T08:58:17;20.60;99.90
11820;DHT22;5967;48.944;9.240;2022-09-09T09:09:18;20.80;99.90
11820;DHT22;5967;48.944;9.240;2022-09-09T09:11:51;20.90;99.90
11820;DHT22;5967;48.944;9.240;2022-09-09T09:14:24;21.00;99.90
11820;DHT22;5967;48.944;9.240;2022-09-09T09:17:15;21.00;99.90
11820;DHT22;5967;48.944;9.240;2022-09-09T09:19:43;21.10;99.90
11820;DHT22;5967;48.944;9.240;2022-09-09T09:22:19;21.10;99.90
11820;DHT22;5967;48.944;9.240;2022-09-09T09:25:17;21.10;99.90
11820;DHT22;5967;48.944;9.240;2022-09-09T09:27:58;21.10;99.90
11820;DHT22;5967;48.944;9.240;2022-09-09T09:30:42;21.10;99.90
11820;DHT22;5967;48.944;9.240;2022-09-09T09:33:28;21.10;99.90
11820;DHT22;5967;48.944;9.240;2022-09-09T09:35:55;21.20;99.90
11820;DHT22;5967;48.944;9.240;2022-09-09T09:38:23;21.10;99.90
11820;DHT22;5967;48.944;9.240;2022-09-09T09:40:54;21.10;99.90
11820;DHT22;5967;48.944;9.240;2022-09-09T09:43:28;21.20;99.90
11820;DHT22;5967;48.944;9.240;2022-09-09T09:45:55;21.30;99.90
11820;DHT22;5967;48.944;9.240;2022-09-09T09:48:23;21.40;99.90
11820;DHT22;5967;48.944;9.240;2022-09-09T09:50:52;21.60;99.90
11820;DHT22;5967;48.944;9.240;2022-09-09T09:53:25;21.80;99.90
11820;DHT22;5967;48.944;9.240;2022-09-09T09:56:03;22.00;99.90
11820;DHT22;5967;48.944;9.240;2022-09-09T10:01:28;22.40;99.90
11820;DHT22;5967;48.944;9.240;2022-09-09T10:04:13;22.50;99.90
11820;DHT22;5967;48.944;9.240;2022-09-09T10:06:40;22.70;99.90
11820;DHT22;5967;48.944;9.240;2022-09-09T10:09:30;22.70;99.90
11820;DHT22;5967;48.944;9.240;2022-09-09T10:20:19;22.90;99.90
11820;DHT22;5967;48.944;9.240;2022-09-09T10:23:02;22.90;99.90
11820;DHT22;5967;48.944;9.240;2022-09-09T10:33:41;23.50;99.90
11820;DHT22;5967;48.944;9.240;2022-09-09T10:36:18;23.50;99.90
11820;DHT22;5967;48.944;9.240;2022-09-09T10:38:52;23.30;99.90
11820;DHT22;5967;48.944;9.240;2022-09-09T10:41:40;23.00;99.90
11820;DHT22;5967;48.944;9.240;2022-09-09T10:47:13;22.60;99.90
11820;DHT22;5967;48.944;9.240;2022-09-09T10:55:22;22.50;99.90
11820;DHT22;5967;48.944;9.240;2022-09-09T10:57:53;22.40;99.90
11820;DHT22;5967;48.944;9.240;2022-09-09T11:00:46;22.30;99.90
11820;DHT22;5967;48.944;9.240;2022-09-09T11:03:19;22.30;99.90
11820;DHT22;5967;48.944;9.240;2022-09-09T11:08:34;22.30;99.90
11820;DHT22;5967;48.944;9.240;2022-09-09T11:19:13;21.60;99.90
11820;DHT22;5967;48.944;9.240;2022-09-09T11:21:48;21.30;99.90
11820;DHT22;5967;48.944;9.240;2022-09-09T11:24:28;21.00;99.90
11820;DHT22;5967;48.944;9.240;2022-09-09T11:27:16;20.90;99.90
11820;DHT22;5967;48.944;9.240;2022-09-09T11:30:19;20.70;99.90
11820;DHT22;5967;48.944;9.240;2022-09-09T11:38:59;20.30;99.90
11820;DHT22;5967;48.944;9.240;2022-09-09T11:41:07;20.10;99.90
11820;DHT22;5967;48.944;9.240;2022-09-09T11:43:45;20.00;99.90
11820;DHT22;5967;48.944;9.240;2022-09-09T11:46:14;19.90;99.90
11820;DHT22;5967;48.944;9.240;2022-09-09T11:48:57;19.90;99.90
11820;DHT22;5967;48.944;9.240;2022-09-09T11:59:06;20.10;99.90
11820;DHT22;5967;48.944;9.240;2022-09-09T12:01:45;20.10;99.90
11820;DHT22;5967;48.944;9.240;2022-09-09T12:04:13;20.20;99.90
11820;DHT22;5967;48.944;9.240;2022-09-09T12:06:50;20.20;99.90
11820;DHT22;5967;48.944;9.240;2022-09-09T12:09:25;20.30;99.90
11820;DHT22;5967;48.944;9.240;2022-09-09T12:11:53;20.50;99.90
11820;DHT22;5967;48.944;9.240;2022-09-09T12:14:37;20.80;99.90
11820;DHT22;5967;48.944;9.240;2022-09-09T12:19:41;21.30;99.90
11820;DHT22;5967;48.944;9.240;2022-09-09T12:24:47;21.70;99.90
11820;DHT22;5967;48.944;9.240;2022-09-09T12:27:20;21.90;99.90
11820;DHT22;5967;48.944;9.240;2022-09-09T12:32:22;22.10;99.90
11820;DHT22;5967;48.944;9.240;2022-09-09T12:37:37;22.10;99.90
11820;DHT22;5967;48.944;9.240;2022-09-09T12:42:31;22.40;99.90
11820;DHT22;5967;48.944;9.240;2022-09-09T12:45:01;22.40;99.90
11820;DHT22;5967;48.944;9.240;2022-09-09T12:50:03;22.30;99.90
11820;DHT22;5967;48.944;9.240;2022-09-09T12:52:32;22.30;99.90
11820;DHT22;5967;48.944;9.240;2022-09-09T12:55:02;22.40;99.90
11820;DHT22;5967;48.944;9.240;2022-09-09T12:57:35;22.50;99.90
11820;DHT22;5967;48.944;9.240;2022-09-09T13:00:10;22.50;99.90
11820;DHT22;5967;48.944;9.240;2022-09-09T13:02:46;22.50;99.90
11820;DHT22;5967;48.944;9.240;2022-09-09T13:05:17;22.50;99.90
11820;DHT22;5967;48.944;9.240;2022-09-09T13:07:43;22.50;99.90
11820;DHT22;5967;48.944;9.240;2022-09-09T13:10:14;22.40;99.90
11820;DHT22;5967;48.944;9.240;2022-09-09T13:12:41;22.40;99.90
11820;DHT22;5967;48.944;9.240;2022-09-09T13:15:22;22.40;99.90
11820;DHT22;5967;48.944;9.240;2022-09-09T13:18:03;22.40;99.90
11820;DHT22;5967;48.944;9.240;2022-09-09T13:20:30;22.30;99.90
11820;DHT22;5967;48.944;9.240;2022-09-09T13:22:56;22.30;99.90
11820;DHT22;5967;48.944;9.240;2022-09-09T13:25:26;22.40;99.90
11820;DHT22;5967;48.944;9.240;2022-09-09T13:28:18;22.40;99.90
11820;DHT22;5967;48.944;9.240;2022-09-09T13:31:02;22.50;99.90
11820;DHT22;5967;48.944;9.240;2022-09-09T13:33:36;22.70;99.90
11820;DHT22;5967;48.944;9.240;2022-09-09T13:36:07;22.90;99.90
11820;DHT22;5967;48.944;9.240;2022-09-09T13:41:23;22.70;99.90
11820;DHT22;5967;48.944;9.240;2022-09-09T13:43:50;22.60;99.90
11820;DHT22;5967;48.944;9.240;2022-09-09T13:46:31;22.50;99.90
11820;DHT22;5967;48.944;9.240;2022-09-09T13:51:34;22.40;99.90
11820;DHT22;5967;48.944;9.240;2022-09-09T13:54:05;22.40;99.90
11820;DHT22;5967;48.944;9.240;2022-09-09T13:56:35;22.30;99.90
11820;DHT22;5967;48.944;9.240;2022-09-09T13:59:03;22.30;99.90
11820;DHT22;5967;48.944;9.240;2022-09-09T14:01:29;22.30;99.90
11820;DHT22;5967;48.944;9.240;2022-09-09T14:03:57;22.30;99.90
11820;DHT22;5967;48.944;9.240;2022-09-09T14:06:28;22.30;99.90
11820;DHT22;5967;48.944;9.240;2022-09-09T14:08:54;22.30;99.90
11820;DHT22;5967;48.944;9.240;2022-09-09T14:11:20;22.30;99.90
11820;DHT22;5967;48.944;9.240;2022-09-09T14:13:49;22.40;99.90
11820;DHT22;5967;48.944;9.240;2022-09-09T14:16:16;22.50;99.90
11820;DHT22;5967;48.944;9.240;2022-09-09T14:18:43;22.60;99.90
11820;DHT22;5967;48.944;9.240;2022-09-09T14:21:09;22.60;99.90
11820;DHT22;5967;48.944;9.240;2022-09-09T14:23:42;22.60;99.90
11820;DHT22;5967;48.944;9.240;2022-09-09T14:26:10;22.60;99.90
11820;DHT22;5967;48.944;9.240;2022-09-09T14:28:36;22.50;99.90
11820;DHT22;5967;48.944;9.240;2022-09-09T14:31:09;22.40;99.90
11820;DHT22;5967;48.944;9.240;2022-09-09T14:33:39;22.30;99.90
11820;DHT22;5967;48.944;9.240;2022-09-09T14:36:04;22.40;99.90
11820;DHT22;5967;48.944;9.240;2022-09-09T14:38:32;22.40;99.90
11820;DHT22;5967;48.944;9.240;2022-09-09T14:40:59;22.50;99.90
11820;DHT22;5967;48.944;9.240;2022-09-09T14:43:25;22.60;99.90
11820;DHT22;5967;48.944;9.240;2022-09-09T14:45:53;22.70;99.90
11820;DHT22;5967;48.944;9.240;2022-09-09T14:48:21;22.70;99.90
11820;DHT22;5967;48.944;9.240;2022-09-09T14:50:50;22.70;99.90
11820;DHT22;5967;48.944;9.240;2022-09-09T14:53:19;22.70;99.90
11820;DHT22;5967;48.944;9.240;2022-09-09T14:55:45;22.60;99.90
11820;DHT22;5967;48.944;9.240;2022-09-09T14:58:12;22.60;99.90
11820;DHT22;5967;48.944;9.240;2022-09-09T15:00:41;22.60;99.90
11820;DHT22;5967;48.944;9.240;2022-09-09T15:03:06;22.60;99.90
11820;DHT22;5967;48.944;9.240;2022-09-09T15:05:43;22.50;99.90
11820;DHT22;5967;48.944;9.240;2022-09-09T15:08:18;22.40;99.90
11820;DHT22;5967;48.944;9.240;2022-09-09T15:10:44;22.30;99.90
11820;DHT22;5967;48.944;9.240;2022-09-09T15:13:10;22.30;99.90
11820;DHT22;5967;48.944;9.240;2022-09-09T15:15:35;22.20;99.90
11820;DHT22;5967;48.944;9.240;2022-09-09T15:18:01;22.10;99.90
11820;DHT22;5967;48.944;9.240;2022-09-09T15:20:26;22.00;99.90
11820;DHT22;5967;48.944;9.240;2022-09-09T15:22:52;21.90;99.90
11820;DHT22;5967;48.944;9.240;2022-09-09T15:25:18;21.80;99.90
11820;DHT22;5967;48.944;9.240;2022-09-09T15:27:43;21.70;99.90
11820;DHT22;5967;48.944;9.240;2022-09-09T15:30:09;21.60;99.90
11820;DHT22;5967;48.944;9.240;2022-09-09T15:32:35;21.60;99.90
11820;DHT22;5967;48.944;9.240;2022-09-09T15:35:01;21.70;99.90
11820;DHT22;5967;48.944;9.240;2022-09-09T15:37:26;21.70;99.90
11820;DHT22;5967;48.944;9.240;2022-09-09T15:39:52;21.80;99.90
11820;DHT22;5967;48.944;9.240;2022-09-09T15:42:18;21.80;99.90
11820;DHT22;5967;48.944;9.240;2022-09-09T15:44:46;21.80;99.90
11820;DHT22;5967;48.944;9.240;2022-09-09T15:47:12;21.90;99.90
11820;DHT22;5967;48.944;9.240;2022-09-09T15:49:40;21.90;99.90
11820;DHT22;5967;48.944;9.240;2022-09-09T15:52:09;21.90;99.90
11820;DHT22;5967;48.944;9.240;2022-09-09T15:54:38;21.80;99.90
11820;DHT22;5967;48.944;9.240;2022-09-09T15:57:06;21.70;99.90
11820;DHT22;5967;48.944;9.240;2022-09-09T15:59:32;21.60;99.90
11820;DHT22;5967;48.944;9.240;2022-09-09T16:01:59;21.50;99.90
11820;DHT22;5967;48.944;9.240;2022-09-09T16:04:34;21.40;99.90
11820;DHT22;5967;48.944;9.240;2022-09-09T16:07:03;21.40;99.90
11820;DHT22;5967;48.944;9.240;2022-09-09T16:09:35;21.30;99.90
11820;DHT22;5967;48.944;9.240;2022-09-09T16:12:02;21.10;99.90
11820;DHT22;5967;48.944;9.240;2022-09-09T16:14:49;21.00;99.90
11820;DHT22;5967;48.944;9.240;2022-09-09T16:17:15;20.90;99.90
11820;DHT22;5967;48.944;9.240;2022-09-09T16:19:48;20.90;99.90
11820;DHT22;5967;48.944;9.240;2022-09-09T16:22:16;20.90;99.90
11820;DHT22;5967;48.944;9.240;2022-09-09T16:24:46;20.80;99.90
11820;DHT22;5967;48.944;9.240;2022-09-09T16:27:17;20.80;99.90
11820;DHT22;5967;48.944;9.240;2022-09-09T16:29:43;20.70;99.90
11820;DHT22;5967;48.944;9.240;2022-09-09T16:32:09;20.60;99.90
11820;DHT22;5967;48.944;9.240;2022-09-09T16:34:38;20.50;99.90
11820;DHT22;5967;48.944;9.240;2022-09-09T16:37:06;20.40;99.90
11820;DHT22;5967;48.944;9.240;2022-09-09T16:39:32;20.20;99.90
11820;DHT22;5967;48.944;9.240;2022-09-09T16:42:03;19.80;99.90
11820;DHT22;5967;48.944;9.240;2022-09-09T16:47:09;19.20;99.90
11820;DHT22;5967;48.944;9.240;2022-09-09T16:49:39;18.90;99.90
11820;DHT22;5967;48.944;9.240;2022-09-09T16:52:05;18.70;99.90
11820;DHT22;5967;48.944;9.240;2022-09-09T16:54:34;18.50;99.90
11820;DHT22;5967;48.944;9.240;2022-09-09T16:56:59;18.30;99.90
11820;DHT22;5967;48.944;9.240;2022-09-09T16:59:25;18.10;99.90
11820;DHT22;5967;48.944;9.240;2022-09-09T17:01:51;17.90;99.90
11820;DHT22;5967;48.944;9.240;2022-09-09T17:04:29;17.70;99.90
11820;DHT22;5967;48.944;9.240;2022-09-09T17:06:59;17.50;99.90
11820;DHT22;5967;48.944;9.240;2022-09-09T17:09:29;17.30;99.90
11820;DHT22;5967;48.944;9.240;2022-09-09T17:11:56;17.20;99.90
11820;DHT22;5967;48.944;9.240;2022-09-09T17:14:22;17.10;99.90
11820;DHT22;5967;48.944;9.240;2022-09-09T17:16:52;17.00;99.90
11820;DHT22;5967;48.944;9.240;2022-09-09T17:19:18;16.80;99.90
11820;DHT22;5967;48.944;9.240;2022-09-09T17:21:43;16.80;99.90
11820;DHT22;5967;48.944;9.240;2022-09-09T17:24:12;16.70;99.90
11820;DHT22;5967;48.944;9.240;2022-09-09T17:26:38;16.70;99.90
11820;DHT22;5967;48.944;9.240;2022-09-09T17:29:03;16.70;99.90
11820;DHT22;5967;48.944;9.240;2022-09-09T17:31:36;16.70;99.90
11820;DHT22;5967;48.944;9.240;2022-09-09T17:34:04;16.70;99.90
11820;DHT22;5967;48.944;9.240;2022-09-09T17:36:34;16.60;99.90
11820;DHT22;5967;48.944;9.240;2022-09-09T17:39:11;16.60;99.90
11820;DHT22;5967;48.944;9.240;2022-09-09T17:41:38;16.60;99.90
11820;DHT22;5967;48.944;9.240;2022-09-09T17:44:18;16.50;99.90
11820;DHT22;5967;48.944;9.240;2022-09-09T17:46:51;16.50;99.90
11820;DHT22;5967;48.944;9.240;2022-09-09T17:49:17;16.40;99.90
11820;DHT22;5967;48.944;9.240;2022-09-09T17:51:45;16.40;99.90
11820;DHT22;5967;48.944;9.240;2022-09-09T17:54:17;16.30;99.90
11820;DHT22;5967;48.944;9.240;2022-09-09T17:56:44;16.20;99.90
11820;DHT22;5967;48.944;9.240;2022-09-09T17:59:11;16.10;99.90
11820;DHT22;5967;48.944;9.240;2022-09-09T18:01:39;16.10;99.90
11820;DHT22;5967;48.944;9.240;2022-09-09T18:04:09;16.00;99.90
11820;DHT22;5967;48.944;9.240;2022-09-09T18:06:41;16.00;99.90
11820;DHT22;5967;48.944;9.240;2022-09-09T18:09:09;15.90;99.90
11820;DHT22;5967;48.944;9.240;2022-09-09T18:11:47;15.90;99.90
11820;DHT22;5967;48.944;9.240;2022-09-09T18:14:18;15.90;99.90
11820;DHT22;5967;48.944;9.240;2022-09-09T18:16:53;15.90;99.90
11820;DHT22;5967;48.944;9.240;2022-09-09T18:19:22;15.90;99.90